Time;durP1;ratioP1;P1;durP2;ratioP2;P2;SDS_P1;SDS_P2;PMS_P1;PMS_P2;Temp;Humidity;BMP_temperature;BMP_pressure;BME280_temperature;BME280_humidity;BME280_pressure;Samples;Min_cycle;Max_cycle;Signal;HPM_P1;HPM_P2
2020/12/26 00:04:10;;;;;;;8.87;7.97;;;4.10;99.90;;;;;;10261575;28;20195;-81
2020/12/26 00:09:12;;;;;;;11.63;10.27;;;4.00;99.90;;;;;;10277878;28;20668;-81
2020/12/26 00:14:14;;;;;;;9.50;8.53;;;4.00;99.90;;;;;;10262256;28;20251;-81
2020/12/26 00:19:16;;;;;;;11.43;9.67;;;4.00;99.90;;;;;;10278717;28;20302;-81
2020/12/26 00:24:18;;;;;;;11.73;9.60;;;4.00;99.90;;;;;;10275623;28;20222;-81
2020/12/26 00:29:20;;;;;;;11.60;8.77;;;4.00;99.90;;;;;;10276306;28;20774;-81
2020/12/26 00:34:22;;;;;;;10.60;8.50;;;3.90;99.90;;;;;;10293816;28;20673;-81
2020/12/26 00:39:24;;;;;;;9.97;8.97;;;3.80;99.90;;;;;;10277064;28;20216;-81
2020/12/26 00:44:26;;;;;;;9.50;7.73;;;3.70;99.90;;;;;;10261459;28;20585;-81
2020/12/26 00:49:28;;;;;;;8.90;7.60;;;3.60;99.90;;;;;;10264263;28;20583;-81
2020/12/26 00:54:30;;;;;;;8.87;7.67;;;3.60;99.90;;;;;;10259442;28;20220;-81
2020/12/26 00:59:32;;;;;;;8.37;7.50;;;3.60;99.90;;;;;;10259130;28;20446;-81
2020/12/26 01:04:34;;;;;;;8.57;7.77;;;3.60;99.90;;;;;;10275407;28;20678;-81
2020/12/26 01:09:36;;;;;;;8.07;7.27;;;3.60;99.90;;;;;;10275804;28;20211;-81
2020/12/26 01:14:37;;;;;;;9.10;8.03;;;3.60;99.90;;;;;;10292658;28;20246;-81
2020/12/26 01:19:40;;;;;;;9.80;8.80;;;3.50;99.90;;;;;;10258923;28;20672;-81
2020/12/26 01:24:42;;;;;;;9.47;8.50;;;3.50;99.90;;;;;;10259292;28;20644;-81
2020/12/26 01:29:44;;;;;;;9.33;8.33;;;3.40;99.90;;;;;;10250282;29;20236;-81
2020/12/26 01:34:46;;;;;;;9.27;8.47;;;3.30;99.90;;;;;;10234815;28;20632;-81
2020/12/26 01:39:47;;;;;;;13.53;9.43;;;3.20;99.90;;;;;;10219854;29;20295;-81
2020/12/26 01:44:49;;;;;;;11.67;10.30;;;3.10;99.90;;;;;;10217849;29;20255;-81
2020/12/26 01:49:52;;;;;;;11.30;9.43;;;3.10;99.90;;;;;;10234186;29;20307;-81
2020/12/26 01:54:54;;;;;;;11.80;9.80;;;3.00;99.90;;;;;;10233740;29;20216;-82
2020/12/26 01:59:56;;;;;;;11.43;9.70;;;3.10;99.90;;;;;;10241097;28;20235;-81
2020/12/26 02:05:00;;;;;;;11.53;10.10;;;3.10;99.90;;;;;;10254077;28;20223;-81
2020/12/26 02:10:02;;;;;;;12.30;11.03;;;3.20;99.90;;;;;;10272205;28;20663;-81
2020/12/26 02:15:03;;;;;;;13.10;9.73;;;3.20;99.90;;;;;;10274093;28;20223;-81
2020/12/26 02:20:06;;;;;;;11.23;9.80;;;3.30;99.90;;;;;;10273116;28;20219;-81
2020/12/26 02:25:08;;;;;;;10.20;9.10;;;3.30;99.90;;;;;;10261547;28;20218;-81
2020/12/26 02:30:10;;;;;;;11.70;9.23;;;3.40;99.90;;;;;;10259727;28;20211;-81
2020/12/26 02:35:12;;;;;;;11.37;10.27;;;3.50;99.90;;;;;;10278037;28;20298;-81
2020/12/26 02:40:14;;;;;;;13.10;10.60;;;3.50;99.90;;;;;;10287367;28;20192;-81
2020/12/26 02:45:16;;;;;;;13.20;10.30;;;3.40;99.90;;;;;;10261134;28;20274;-81
2020/12/26 02:50:17;;;;;;;10.50;9.43;;;3.50;99.90;;;;;;10263056;28;20200;-81
2020/12/26 02:55:20;;;;;;;14.17;11.73;;;3.60;99.90;;;;;;10263387;28;20263;-81
2020/12/26 03:00:21;;;;;;;14.10;11.50;;;3.60;99.90;;;;;;10264040;28;20215;-81
2020/12/26 03:05:23;;;;;;;13.70;10.47;;;3.70;99.90;;;;;;10264099;28;20708;-81
2020/12/26 03:10:25;;;;;;;17.60;11.37;;;3.80;99.90;;;;;;10281902;28;20717;-81
2020/12/26 03:15:27;;;;;;;12.33;10.73;;;3.90;99.90;;;;;;10267422;28;20295;-82
2020/12/26 03:20:29;;;;;;;17.67;11.50;;;3.90;99.90;;;;;;10281538;28;20250;-81
2020/12/26 03:25:32;;;;;;;13.63;11.93;;;3.90;99.90;;;;;;10266887;28;20314;-82
2020/12/26 03:30:34;;;;;;;14.40;11.27;;;3.90;99.90;;;;;;10283407;28;20275;-81
2020/12/26 03:35:36;;;;;;;14.23;10.30;;;3.90;99.90;;;;;;10278451;28;20757;-81
2020/12/26 03:40:38;;;;;;;19.13;12.87;;;3.80;99.90;;;;;;10278728;28;20699;-81
2020/12/26 03:45:40;;;;;;;13.17;11.77;;;3.80;99.90;;;;;;10262335;28;20732;-81
2020/12/26 03:50:41;;;;;;;14.53;9.83;;;3.80;99.90;;;;;;10279500;28;20580;-81
2020/12/26 03:55:44;;;;;;;11.53;10.17;;;3.80;99.90;;;;;;10277550;28;20310;-81
2020/12/26 04:00:46;;;;;;;14.20;11.90;;;3.80;99.90;;;;;;10294150;28;20196;-82
2020/12/26 04:05:47;;;;;;;13.77;9.90;;;3.80;99.90;;;;;;10262340;28;20314;-81
2020/12/26 04:10:50;;;;;;;11.87;10.00;;;3.80;99.90;;;;;;10278744;28;20206;-81
2020/12/26 04:15:51;;;;;;;14.00;9.80;;;3.80;99.90;;;;;;10276494;28;20220;-81
2020/12/26 04:20:53;;;;;;;13.97;10.37;;;3.80;99.90;;;;;;10261875;28;20207;-81
2020/12/26 04:26:15;;;;;;;13.10;10.00;;;3.90;99.90;;;;;;10300238;23;20326;-81
2020/12/26 04:31:18;;;;;;;14.27;10.20;;;3.90;99.90;;;;;;10263423;28;20232;-81
2020/12/26 04:36:20;;;;;;;10.23;8.80;;;3.90;99.90;;;;;;10296163;28;20589;-83
2020/12/26 04:41:22;;;;;;;10.40;8.73;;;3.90;99.90;;;;;;10263968;28;20694;-82
2020/12/26 04:46:27;;;;;;;10.10;8.50;;;4.00;99.90;;;;;;10279077;28;20311;-82
2020/12/26 04:51:33;;;;;;;9.73;8.37;;;4.00;99.90;;;;;;10299602;28;20223;-83
2020/12/26 04:56:40;;;;;;;11.30;9.00;;;3.90;99.90;;;;;;10278871;28;20223;-82
2020/12/26 05:01:42;;;;;;;11.63;9.53;;;4.00;99.90;;;;;;10263388;28;20214;-83
2020/12/26 05:06:49;;;;;;;9.63;8.63;;;4.00;99.90;;;;;;10279964;28;20220;-82
2020/12/26 05:11:54;;;;;;;13.13;9.10;;;4.00;99.90;;;;;;10280346;28;20235;-82
2020/12/26 05:16:55;;;;;;;11.37;8.70;;;4.10;99.90;;;;;;10283165;28;20234;-82
2020/12/26 05:21:58;;;;;;;10.83;9.67;;;4.10;99.90;;;;;;10262293;28;20199;-81
2020/12/26 05:27:00;;;;;;;12.63;10.03;;;4.20;99.90;;;;;;10292990;28;20231;-82
2020/12/26 05:32:04;;;;;;;12.50;10.20;;;4.30;99.90;;;;;;10276379;28;20220;-82
2020/12/26 05:37:06;;;;;;;14.17;11.70;;;4.40;99.90;;;;;;10293208;28;20221;-83
2020/12/26 05:42:09;;;;;;;18.37;12.23;;;4.40;99.90;;;;;;10275894;28;20206;-81
2020/12/26 05:47:10;;;;;;;16.53;12.60;;;4.40;99.90;;;;;;10275397;28;20219;-81
2020/12/26 05:52:13;;;;;;;14.33;12.83;;;4.40;99.90;;;;;;10264837;28;20614;-81
2020/12/26 05:57:17;;;;;;;14.43;12.90;;;4.40;99.90;;;;;;10293014;28;20247;-83
2020/12/26 06:02:25;;;;;;;16.03;13.67;;;4.40;99.90;;;;;;10293663;28;20609;-81
2020/12/26 06:07:29;;;;;;;18.73;12.53;;;4.40;99.90;;;;;;10258802;28;20250;-81
2020/12/26 06:12:32;;;;;;;15.50;12.57;;;4.30;99.90;;;;;;10274806;28;20219;-81
2020/12/26 06:17:34;;;;;;;15.10;13.07;;;4.30;99.90;;;;;;10259470;28;20298;-81
2020/12/26 06:22:44;;;;;;;18.23;14.10;;;4.20;99.90;;;;;;10278376;28;20656;-82
2020/12/26 06:28:01;;;;;;;16.07;12.77;;;4.10;99.90;;;;;;10285014;28;20247;-81
2020/12/26 06:33:03;;;;;;;16.50;11.43;;;4.00;99.90;;;;;;10280942;28;20310;-82
2020/12/26 06:38:13;;;;;;;16.13;12.17;;;3.90;99.90;;;;;;10267201;28;20310;-81
2020/12/26 06:43:59;;;;;;;13.00;11.13;;;3.70;99.90;;;;;;10283373;28;20309;-82
2020/12/26 06:49:01;;;;;;;13.17;11.60;;;3.60;99.90;;;;;;10269254;28;20219;-83
2020/12/26 06:54:04;;;;;;;12.00;10.80;;;3.40;99.90;;;;;;10284406;28;20226;-83
2020/12/26 06:59:07;;;;;;;16.90;13.07;;;3.40;99.90;;;;;;10287222;28;20238;-82
2020/12/26 07:04:13;;;;;;;15.90;13.63;;;3.30;99.90;;;;;;10282443;28;20681;-83
2020/12/26 07:09:16;;;;;;;14.80;12.40;;;3.20;99.90;;;;;;10284084;28;20230;-80
2020/12/26 07:14:32;;;;;;;15.60;12.83;;;3.10;99.90;;;;;;10300559;28;20224;-81
2020/12/26 07:19:42;;;;;;;15.13;12.83;;;3.00;99.90;;;;;;10300562;28;20279;-83
2020/12/26 07:24:45;;;;;;;14.23;11.93;;;3.00;99.90;;;;;;10281985;28;20240;-82
2020/12/26 07:29:57;;;;;;;16.00;12.70;;;2.90;99.90;;;;;;10267085;28;20235;-81
2020/12/26 07:34:58;;;;;;;13.97;12.33;;;3.00;99.90;;;;;;10298906;28;20213;-82
2020/12/26 07:40:01;;;;;;;14.93;13.13;;;3.00;99.90;;;;;;10268098;28;20250;-80
2020/12/26 07:45:09;;;;;;;14.23;12.73;;;3.00;99.90;;;;;;10299275;28;20215;-81
2020/12/26 07:50:13;;;;;;;14.90;13.27;;;3.00;99.90;;;;;;10300152;28;20237;-83
2020/12/26 07:55:14;;;;;;;15.80;13.80;;;3.10;99.90;;;;;;10267160;28;20675;-82
2020/12/26 08:00:24;;;;;;;16.50;13.20;;;3.10;99.90;;;;;;10284330;28;20271;-82
2020/12/26 08:05:27;;;;;;;18.07;13.57;;;3.10;99.90;;;;;;10267254;28;20552;-80
2020/12/26 08:10:29;;;;;;;14.90;12.67;;;3.20;99.90;;;;;;10299856;28;20223;-80
2020/12/26 08:15:32;;;;;;;15.00;12.33;;;3.30;99.90;;;;;;10299625;28;20226;-81
2020/12/26 08:20:35;;;;;;;14.43;11.37;;;3.40;99.90;;;;;;10282906;28;20294;-81
2020/12/26 08:25:37;;;;;;;13.23;10.50;;;3.50;99.90;;;;;;10282156;28;20216;-81
2020/12/26 08:30:40;;;;;;;11.03;9.83;;;3.60;99.90;;;;;;10272055;28;20699;-80
2020/12/26 08:35:49;;;;;;;12.00;10.77;;;3.70;99.90;;;;;;10287186;28;20235;-80
2020/12/26 08:40:55;;;;;;;11.10;10.00;;;3.70;99.90;;;;;;10283519;28;20200;-80
2020/12/26 08:45:58;;;;;;;10.80;9.37;;;3.80;99.90;;;;;;10278047;28;20250;-79
2020/12/26 08:51:01;;;;;;;11.53;10.27;;;3.80;99.90;;;;;;10264411;28;20196;-81
2020/12/26 08:56:02;;;;;;;11.40;9.73;;;3.80;99.90;;;;;;10262445;28;20639;-80
2020/12/26 09:01:06;;;;;;;12.20;9.50;;;3.90;99.90;;;;;;10264059;28;20695;-80
2020/12/26 09:06:07;;;;;;;14.77;11.07;;;3.90;99.90;;;;;;10266541;28;20211;-81
2020/12/26 09:11:10;;;;;;;12.23;9.87;;;4.00;99.90;;;;;;10264028;28;20660;-80
2020/12/26 09:16:14;;;;;;;11.37;9.70;;;4.20;99.90;;;;;;10279033;28;20581;-81
2020/12/26 09:21:24;;;;;;;9.50;8.50;;;4.40;99.90;;;;;;10263692;28;20203;-81
2020/12/26 09:26:27;;;;;;;11.37;8.63;;;4.50;99.90;;;;;;10278373;28;20228;-81
2020/12/26 09:31:31;;;;;;;9.80;8.80;;;4.70;99.90;;;;;;10263336;28;20392;-83
2020/12/26 09:36:33;;;;;;;8.57;7.40;;;4.80;99.90;;;;;;10262682;28;20255;-80
2020/12/26 09:41:43;;;;;;;8.70;7.90;;;4.90;99.80;;;;;;10260906;28;20207;-83
2020/12/26 09:46:45;;;;;;;8.93;8.10;;;5.10;99.80;;;;;;10261383;28;20625;-81
2020/12/26 09:51:47;;;;;;;9.53;8.60;;;5.20;99.70;;;;;;10262640;28;20203;-82
2020/12/26 09:56:49;;;;;;;11.47;8.50;;;5.30;99.70;;;;;;10295106;28;20224;-82
2020/12/26 10:01:51;;;;;;;9.80;8.60;;;5.40;99.30;;;;;;10262786;28;20211;-81
2020/12/26 10:06:53;;;;;;;9.07;8.17;;;5.50;99.90;;;;;;10265804;28;20628;-80
2020/12/26 10:11:54;;;;;;;9.17;8.20;;;5.60;99.40;;;;;;10279870;28;20211;-81
2020/12/26 10:16:57;;;;;;;10.50;7.60;;;5.60;99.40;;;;;;10277263;28;20243;-80
2020/12/26 10:21:58;;;;;;;7.83;7.00;;;5.70;99.30;;;;;;10275657;28;20192;-79
2020/12/26 10:27:00;;;;;;;8.00;7.20;;;5.80;99.60;;;;;;10276682;28;20238;-82
2020/12/26 10:32:04;;;;;;;8.00;6.67;;;6.00;98.60;;;;;;10265998;28;20267;-83
2020/12/26 10:37:06;;;;;;;7.17;6.50;;;6.10;99.00;;;;;;10262931;28;20222;-82
2020/12/26 10:42:08;;;;;;;6.90;6.17;;;6.10;98.70;;;;;;10261335;28;20200;-81
2020/12/26 10:47:10;;;;;;;6.57;5.97;;;6.10;98.40;;;;;;10294905;28;20687;-82
2020/12/26 10:52:12;;;;;;;6.00;5.50;;;6.20;98.60;;;;;;10278864;28;20564;-83
2020/12/26 10:57:13;;;;;;;7.27;6.03;;;6.30;98.10;;;;;;10261135;28;20223;-83
2020/12/26 11:02:16;;;;;;;7.43;5.87;;;6.40;98.10;;;;;;10263342;28;20204;-83
2020/12/26 11:07:17;;;;;;;6.40;5.80;;;6.40;97.10;;;;;;10281064;28;20223;-83
2020/12/26 11:12:19;;;;;;;6.40;5.30;;;6.40;95.80;;;;;;10273973;28;20216;-83
2020/12/26 11:17:21;;;;;;;4.40;4.00;;;6.30;95.20;;;;;;10287294;28;20239;-83
2020/12/26 11:22:23;;;;;;;5.57;4.97;;;6.20;95.60;;;;;;10288613;28;20200;-83
2020/12/26 11:27:25;;;;;;;5.33;4.90;;;6.20;96.30;;;;;;10287980;28;20236;-83
2020/12/26 11:32:27;;;;;;;5.83;5.27;;;6.30;96.10;;;;;;10271722;28;20220;-83
2020/12/26 11:37:30;;;;;;;4.93;4.40;;;6.40;95.60;;;;;;10292464;28;20811;-84
2020/12/26 11:42:31;;;;;;;5.83;5.33;;;6.50;96.10;;;;;;10276350;28;20219;-82
2020/12/26 11:47:34;;;;;;;5.80;5.20;;;6.50;94.20;;;;;;10284975;28;20219;-84
2020/12/26 11:52:36;;;;;;;4.90;4.50;;;6.50;94.70;;;;;;10286730;28;20628;-81
2020/12/26 11:57:37;;;;;;;5.33;4.83;;;6.50;95.30;;;;;;10285178;28;20782;-83
2020/12/26 12:02:40;;;;;;;5.83;5.33;;;6.50;94.60;;;;;;10285635;28;20231;-82
2020/12/26 12:07:41;;;;;;;5.57;5.03;;;6.40;94.40;;;;;;10270626;28;20216;-84
2020/12/26 12:12:43;;;;;;;6.60;4.90;;;6.40;93.90;;;;;;10287347;28;20216;-83
2020/12/26 12:17:46;;;;;;;5.83;5.33;;;6.30;93.80;;;;;;10270425;28;20315;-83
2020/12/26 12:22:48;;;;;;;5.57;5.10;;;6.30;93.90;;;;;;10282034;28;20440;-84
2020/12/26 12:27:50;;;;;;;5.87;5.37;;;6.50;94.20;;;;;;10283465;28;20231;-83
2020/12/26 12:32:53;;;;;;;7.47;6.77;;;6.50;93.90;;;;;;10266219;28;20247;-84
2020/12/26 12:37:55;;;;;;;7.20;6.47;;;6.60;95.40;;;;;;10288377;28;20266;-82
2020/12/26 12:42:56;;;;;;;7.07;6.37;;;6.60;94.90;;;;;;10269527;28;20231;-84
2020/12/26 12:47:59;;;;;;;5.60;5.17;;;6.70;95.70;;;;;;10289123;28;20219;-84
2020/12/26 12:53:01;;;;;;;6.33;4.93;;;6.80;95.20;;;;;;10267534;28;20227;-82
2020/12/26 12:58:03;;;;;;;6.00;5.57;;;6.80;93.90;;;;;;10301142;28;20287;-84
2020/12/26 13:03:05;;;;;;;6.50;5.43;;;6.70;93.30;;;;;;10284512;28;20255;-83
2020/12/26 13:08:07;;;;;;;5.50;5.10;;;6.70;93.80;;;;;;10268209;28;20220;-84
2020/12/26 13:13:08;;;;;;;6.80;6.20;;;6.60;93.90;;;;;;10279666;28;20215;-83
2020/12/26 13:18:11;;;;;;;6.60;5.90;;;6.60;93.80;;;;;;10270470;28;20220;-83
2020/12/26 13:23:13;;;;;;;6.83;6.10;;;6.60;93.40;;;;;;10264911;28;20283;-83
2020/12/26 13:28:14;;;;;;;6.40;5.83;;;6.60;93.80;;;;;;10265729;28;20260;-83
2020/12/26 13:33:17;;;;;;;6.80;6.20;;;6.60;94.60;;;;;;10269198;28;20227;-82
2020/12/26 13:38:18;;;;;;;5.37;4.90;;;6.60;94.30;;;;;;10274618;28;20212;-82
2020/12/26 13:43:20;;;;;;;7.40;5.97;;;6.60;93.30;;;;;;10283978;28;20223;-83
2020/12/26 13:48:22;;;;;;;4.67;4.27;;;6.60;93.80;;;;;;10302146;28;20302;-84
2020/12/26 13:53:24;;;;;;;7.80;5.13;;;6.50;93.60;;;;;;10267020;28;20599;-83
2020/12/26 13:58:26;;;;;;;6.40;5.77;;;6.50;93.50;;;;;;10279790;28;20639;-82
2020/12/26 14:03:28;;;;;;;5.53;5.03;;;6.40;93.60;;;;;;10284141;28;20211;-83
2020/12/26 14:08:31;;;;;;;4.90;4.50;;;6.40;93.20;;;;;;10299510;28;20224;-82
2020/12/26 14:13:35;;;;;;;5.70;5.27;;;6.50;93.70;;;;;;10298602;28;20219;-83
2020/12/26 14:18:37;;;;;;;4.90;4.50;;;6.50;92.90;;;;;;10272371;28;20234;-84
2020/12/26 14:23:39;;;;;;;5.30;4.80;;;6.60;92.50;;;;;;10284290;28;20615;-84
2020/12/26 14:28:44;;;;;;;6.37;4.90;;;6.60;91.90;;;;;;10267987;28;20236;-83
2020/12/26 14:33:46;;;;;;;5.40;4.57;;;6.60;92.70;;;;;;10282581;28;20318;-84
2020/12/26 14:38:48;;;;;;;6.00;4.73;;;6.60;90.90;;;;;;10285640;28;20700;-84
2020/12/26 14:43:50;;;;;;;5.37;4.83;;;6.50;90.20;;;;;;10290265;28;20663;-81
2020/12/26 14:48:54;;;;;;;5.37;4.97;;;6.40;91.10;;;;;;10289672;28;20215;-82
2020/12/26 14:53:57;;;;;;;5.50;5.00;;;6.30;90.90;;;;;;10290435;28;20730;-83
2020/12/26 14:59:04;;;;;;;5.63;5.13;;;6.20;91.40;;;;;;10269685;28;20224;-82
2020/12/26 15:04:07;;;;;;;5.60;5.10;;;6.10;91.50;;;;;;10278057;28;20211;-83
2020/12/26 15:09:12;;;;;;;5.70;5.20;;;6.10;92.40;;;;;;10264744;28;20227;-82
2020/12/26 15:14:14;;;;;;;7.77;6.97;;;6.10;92.60;;;;;;10231562;29;20224;-83
2020/12/26 15:19:22;;;;;;;5.37;4.90;;;6.00;92.60;;;;;;10262888;28;20216;-83
2020/12/26 15:24:24;;;;;;;5.70;5.20;;;5.90;92.80;;;;;;10286786;28;21116;-82
2020/12/26 15:29:25;;;;;;;6.67;5.77;;;5.80;92.20;;;;;;10247401;28;20379;-82
2020/12/26 15:34:28;;;;;;;6.80;6.10;;;5.70;92.70;;;;;;10260093;28;20302;-82
2020/12/26 15:39:30;;;;;;;6.30;5.30;;;5.60;93.20;;;;;;10276343;28;20223;-82
2020/12/26 15:44:31;;;;;;;6.50;5.87;;;5.40;93.70;;;;;;10295730;28;20563;-82
2020/12/26 15:49:34;;;;;;;7.33;6.53;;;5.20;94.20;;;;;;10223530;29;20697;-82
2020/12/26 15:54:35;;;;;;;6.87;5.30;;;5.10;94.90;;;;;;10256638;28;20564;-80
2020/12/26 15:59:37;;;;;;;7.40;6.70;;;4.90;94.70;;;;;;10241323;28;20224;-82
2020/12/26 16:04:41;;;;;;;8.10;7.30;;;4.70;95.00;;;;;;10237062;29;20201;-82
2020/12/26 16:09:43;;;;;;;8.53;6.90;;;4.50;95.30;;;;;;10236955;29;20791;-82
2020/12/26 16:14:45;;;;;;;12.93;11.73;;;4.40;95.50;;;;;;10221153;29;20284;-82
2020/12/26 16:19:47;;;;;;;10.17;8.43;;;4.20;96.10;;;;;;10222405;29;20232;-81
2020/12/26 16:24:49;;;;;;;13.47;12.17;;;4.20;96.40;;;;;;10238214;28;20669;-83
2020/12/26 16:29:50;;;;;;;9.30;8.50;;;4.10;96.60;;;;;;10279080;23;20711;-81
2020/12/26 16:34:53;;;;;;;8.07;7.27;;;4.00;96.60;;;;;;10278720;28;20227;-81
2020/12/26 16:39:54;;;;;;;10.90;8.33;;;3.90;97.10;;;;;;10323428;28;20290;-81
2020/12/26 16:44:56;;;;;;;16.23;13.17;;;3.90;97.10;;;;;;10342200;28;20229;-81
2020/12/26 16:49:58;;;;;;;12.10;11.10;;;3.80;97.30;;;;;;10346564;28;20222;-81
2020/12/26 16:55:00;;;;;;;14.57;13.07;;;3.80;97.10;;;;;;10347263;28;20230;-81
2020/12/26 17:00:07;;;;;;;12.53;11.23;;;3.70;97.60;;;;;;10314341;28;20230;-81
2020/12/26 17:05:10;;;;;;;13.43;12.03;;;3.60;97.80;;;;;;10362133;28;20190;-81
2020/12/26 17:10:11;;;;;;;14.43;12.93;;;3.60;97.60;;;;;;10361615;28;20592;-81
2020/12/26 17:15:13;;;;;;;12.20;11.10;;;3.60;97.60;;;;;;10370330;28;20219;-81
2020/12/26 17:20:15;;;;;;;15.17;11.97;;;3.50;97.90;;;;;;10350302;28;20237;-81
2020/12/26 17:25:17;;;;;;;11.63;10.43;;;3.40;97.60;;;;;;10352109;28;20206;-81
2020/12/26 17:30:19;;;;;;;11.50;10.07;;;3.40;97.80;;;;;;10282153;28;20721;-81
2020/12/26 17:35:21;;;;;;;13.33;11.93;;;3.40;97.50;;;;;;10281265;28;20317;-81
2020/12/26 17:40:23;;;;;;;17.10;12.80;;;3.40;97.50;;;;;;10294586;28;20655;-81
2020/12/26 17:45:24;;;;;;;12.17;10.87;;;3.40;97.20;;;;;;10327479;28;20222;-81
2020/12/26 17:50:27;;;;;;;10.53;9.53;;;3.40;97.60;;;;;;10327521;28;20218;-81
2020/12/26 17:55:28;;;;;;;11.80;10.70;;;3.50;97.80;;;;;;10326961;28;20225;-81
2020/12/26 18:00:30;;;;;;;11.20;10.10;;;3.50;97.50;;;;;;10322687;28;20670;-81
2020/12/26 18:05:33;;;;;;;10.93;9.83;;;3.50;97.10;;;;;;10349314;28;20198;-81
2020/12/26 18:10:35;;;;;;;12.23;9.80;;;3.40;96.80;;;;;;10332503;28;20222;-81
2020/12/26 18:15:36;;;;;;;9.83;8.80;;;3.40;97.00;;;;;;10367661;28;20230;-81
2020/12/26 18:20:39;;;;;;;11.63;10.10;;;3.40;97.20;;;;;;10348363;28;20638;-81
2020/12/26 18:25:41;;;;;;;12.00;10.77;;;3.50;96.60;;;;;;10350457;28;20251;-81
2020/12/26 18:30:42;;;;;;;9.50;8.50;;;3.50;96.60;;;;;;10298668;28;20310;-81
2020/12/26 18:35:45;;;;;;;12.10;9.20;;;3.40;97.10;;;;;;10312489;28;20310;-81
2020/12/26 18:40:46;;;;;;;11.30;9.97;;;3.50;96.50;;;;;;10312622;28;20711;-81
2020/12/26 18:45:48;;;;;;;12.10;8.33;;;3.40;96.60;;;;;;10309879;28;20192;-81
2020/12/26 18:50:50;;;;;;;10.67;8.77;;;3.40;96.30;;;;;;10310600;28;20758;-81
2020/12/26 18:55:52;;;;;;;8.70;7.83;;;3.40;96.80;;;;;;10310379;28;20223;-81
2020/12/26 19:00:54;;;;;;;9.20;8.27;;;3.40;96.60;;;;;;10314299;28;20231;-81
2020/12/26 19:05:56;;;;;;;10.03;9.00;;;3.40;96.10;;;;;;10315795;28;20255;-81
2020/12/26 19:10:58;;;;;;;8.43;7.03;;;3.40;96.40;;;;;;10315029;28;20597;-81
2020/12/26 19:16:00;;;;;;;12.63;9.20;;;3.40;96.20;;;;;;10298012;28;20250;-81
2020/12/26 19:21:02;;;;;;;8.80;6.47;;;3.40;95.80;;;;;;10317382;28;20612;-80
2020/12/26 19:26:04;;;;;;;8.63;7.70;;;3.40;96.20;;;;;;10318763;28;20196;-81
2020/12/26 19:31:06;;;;;;;11.50;9.07;;;3.40;96.20;;;;;;10380854;28;20238;-81
2020/12/26 19:36:08;;;;;;;9.07;8.17;;;3.40;96.70;;;;;;10370996;28;20249;-81
2020/12/26 19:41:10;;;;;;;9.37;8.30;;;3.40;96.50;;;;;;10356918;28;20258;-81
2020/12/26 19:46:15;;;;;;;10.83;8.20;;;3.50;96.80;;;;;;10373396;28;20678;-81
2020/12/26 19:51:18;;;;;;;8.90;7.97;;;3.50;96.50;;;;;;10375592;28;20277;-81
2020/12/26 19:56:19;;;;;;;9.93;8.27;;;3.50;96.30;;;;;;10378328;28;20296;-81
2020/12/26 20:01:21;;;;;;;8.80;7.90;;;3.50;96.30;;;;;;10286504;28;20222;-81
2020/12/26 20:06:23;;;;;;;8.60;7.33;;;3.40;96.30;;;;;;10315114;28;20218;-81
2020/12/26 20:11:25;;;;;;;9.33;7.37;;;3.40;96.20;;;;;;10377806;28;20200;-81
2020/12/26 20:16:26;;;;;;;8.60;7.80;;;3.40;96.40;;;;;;10360586;28;20642;-81
2020/12/26 20:21:32;;;;;;;9.50;7.80;;;3.40;96.40;;;;;;10344240;28;20230;-81
2020/12/26 20:26:34;;;;;;;7.73;6.90;;;3.50;96.50;;;;;;10363539;28;20290;-81
2020/12/26 20:31:35;;;;;;;7.93;7.23;;;3.50;95.70;;;;;;10327744;28;20289;-81
2020/12/26 20:36:38;;;;;;;8.30;6.67;;;3.50;95.40;;;;;;10342862;28;20313;-81
2020/12/26 20:41:40;;;;;;;8.53;7.10;;;3.50;94.50;;;;;;10342110;28;20662;-81
2020/12/26 20:46:42;;;;;;;6.70;6.10;;;3.40;93.50;;;;;;10357863;28;20697;-81
2020/12/26 20:51:44;;;;;;;7.17;6.47;;;3.40;93.50;;;;;;10376896;28;20205;-81
2020/12/26 20:56:46;;;;;;;6.63;6.03;;;3.30;93.40;;;;;;10331636;28;20319;-81
2020/12/26 21:01:47;;;;;;;7.83;6.03;;;3.30;93.20;;;;;;10278892;28;20215;-82
2020/12/26 21:06:54;;;;;;;6.20;5.43;;;3.30;92.70;;;;;;10296194;28;20239;-81
2020/12/26 21:11:55;;;;;;;5.97;5.37;;;3.30;93.30;;;;;;10279777;28;20206;-81
2020/12/26 21:16:57;;;;;;;6.40;5.80;;;3.30;92.90;;;;;;10318659;28;20306;-81
2020/12/26 21:22:00;;;;;;;6.83;5.50;;;3.30;92.60;;;;;;10317701;28;20282;-81
2020/12/26 21:27:02;;;;;;;7.13;5.57;;;3.30;92.00;;;;;;10318601;28;20305;-81
2020/12/26 21:32:03;;;;;;;8.13;6.23;;;3.30;92.60;;;;;;10309411;28;20671;-81
2020/12/26 21:37:07;;;;;;;5.70;5.20;;;3.30;93.50;;;;;;10326049;28;20277;-81
2020/12/26 21:42:09;;;;;;;7.53;5.80;;;3.30;93.00;;;;;;10308258;28;20207;-81
2020/12/26 21:47:11;;;;;;;5.80;5.30;;;3.30;92.80;;;;;;10320494;28;20243;-81
2020/12/26 21:52:13;;;;;;;6.57;5.70;;;3.20;92.30;;;;;;10319147;28;20210;-81
2020/12/26 21:57:15;;;;;;;5.93;5.33;;;3.20;92.30;;;;;;10335670;28;20790;-81
2020/12/26 22:02:16;;;;;;;5.87;5.27;;;3.10;92.10;;;;;;10320294;28;20692;-81
2020/12/26 22:07:22;;;;;;;8.93;6.37;;;3.10;92.70;;;;;;10303571;28;20695;-81
2020/12/26 22:12:23;;;;;;;6.90;5.70;;;3.10;93.00;;;;;;10318362;28;20195;-81
2020/12/26 22:17:25;;;;;;;5.30;4.80;;;3.10;91.90;;;;;;10314300;28;20223;-81
2020/12/26 22:22:27;;;;;;;5.70;5.20;;;3.10;91.10;;;;;;10297853;28;20989;-81
2020/12/26 22:27:33;;;;;;;5.40;4.90;;;3.00;91.90;;;;;;10323230;23;20224;-80
2020/12/26 22:32:36;;;;;;;5.03;4.53;;;2.90;92.30;;;;;;10267740;28;20199;-82
2020/12/26 22:37:39;;;;;;;4.70;4.30;;;2.90;91.80;;;;;;10269654;28;20227;-81
2020/12/26 22:42:40;;;;;;;4.90;4.50;;;2.90;92.50;;;;;;10298010;28;20548;-82
2020/12/26 22:47:42;;;;;;;5.40;4.90;;;2.90;92.30;;;;;;10265330;28;20230;-82
2020/12/26 22:52:45;;;;;;;4.20;3.90;;;2.90;91.70;;;;;;10261777;28;20582;-82
2020/12/26 22:57:46;;;;;;;5.10;4.67;;;2.90;91.90;;;;;;10276479;28;20240;-82
2020/12/26 23:02:48;;;;;;;5.00;4.60;;;2.80;92.40;;;;;;10262437;28;20208;-83
2020/12/26 23:07:53;;;;;;;5.53;4.60;;;2.80;91.50;;;;;;10289542;28;20250;-82
2020/12/26 23:12:55;;;;;;;5.23;4.73;;;2.80;92.00;;;;;;10286492;28;20196;-80
2020/12/26 23:17:56;;;;;;;4.93;4.43;;;2.90;90.60;;;;;;10266234;28;20228;-81
2020/12/26 23:22:59;;;;;;;5.43;4.93;;;2.80;91.00;;;;;;10271755;28;20200;-82
2020/12/26 23:28:01;;;;;;;5.37;4.87;;;2.80;91.40;;;;;;10278300;28;20292;-82
2020/12/26 23:33:02;;;;;;;5.37;4.87;;;2.90;91.70;;;;;;10275443;28;20299;-81
2020/12/26 23:38:05;;;;;;;5.30;4.80;;;2.90;91.70;;;;;;10258806;28;20239;-82
2020/12/26 23:43:07;;;;;;;5.47;4.97;;;3.00;91.40;;;;;;10226814;29;20484;-84
2020/12/26 23:48:08;;;;;;;6.80;4.97;;;3.00;90.60;;;;;;10219375;29;20728;-84
2020/12/26 23:53:11;;;;;;;4.87;4.47;;;2.90;90.60;;;;;;10256104;29;20197;-84
2020/12/26 23:58:12;;;;;;;5.43;4.47;;;2.80;91.10;;;;;;10251052;28;20590;-84
